createdAt,value
2018-01-28T00:00:08.079Z,926.41
2018-01-28T00:00:20.292Z,926.37
2018-01-28T00:00:33.319Z,926.38
2018-01-28T00:00:46.041Z,926.36
2018-01-28T00:00:58.178Z,926.41
2018-01-28T00:01:10.860Z,926.38
2018-01-28T00:01:23.425Z,926.38
2018-01-28T00:01:36.046Z,926.36
2018-01-28T00:01:48.201Z,926.37
2018-01-28T00:02:00.815Z,926.35
2018-01-28T00:02:13.350Z,926.39
2018-01-28T00:02:25.970Z,926.38
2018-01-28T00:02:38.114Z,926.38
2018-01-28T00:02:50.205Z,926.41
2018-01-28T00:03:01.882Z,926.4
2018-01-28T00:03:15.032Z,926.39
2018-01-28T00:03:28.078Z,926.35
2018-01-28T00:03:40.247Z,926.37
2018-01-28T00:03:52.800Z,926.37
2018-01-28T00:04:05.998Z,926.34
2018-01-28T00:04:18.608Z,926.36
2018-01-28T00:04:31.174Z,926.34
2018-01-28T00:04:44.281Z,926.34
2018-01-28T00:04:57.380Z,926.37
2018-01-28T00:05:09.538Z,926.33
2018-01-28T00:05:22.147Z,926.33
2018-01-28T00:05:34.853Z,926.31
2018-01-28T00:05:47.999Z,926.35
2018-01-28T00:06:01.096Z,926.34
2018-01-28T00:06:13.207Z,926.34
2018-01-28T00:06:26.377Z,926.3
2018-01-28T00:06:39.027Z,926.35
2018-01-28T00:06:51.645Z,926.32
2018-01-28T00:07:04.202Z,926.31
2018-01-28T00:07:15.921Z,926.31
2018-01-28T00:07:28.987Z,926.33
2018-01-28T00:07:42.053Z,926.33
2018-01-28T00:07:55.153Z,926.3
2018-01-28T00:08:07.921Z,926.32
2018-01-28T00:08:20.938Z,926.34
2018-01-28T00:08:34.029Z,926.32
2018-01-28T00:08:46.192Z,926.33
2018-01-28T00:08:59.326Z,926.31
2018-01-28T00:09:12.446Z,926.28
2018-01-28T00:09:25.062Z,926.34
2018-01-28T00:09:37.216Z,926.28
2018-01-28T00:09:49.373Z,926.3
2018-01-28T00:10:02.484Z,926.38
2018-01-28T00:10:15.056Z,926.35
2018-01-28T00:10:28.160Z,926.35
2018-01-28T00:10:41.267Z,926.31
2018-01-28T00:10:54.384Z,926.34
2018-01-28T00:11:06.598Z,926.37
2018-01-28T00:11:19.168Z,926.36
2018-01-28T00:11:32.222Z,926.35
2018-01-28T00:11:44.884Z,926.35
2018-01-28T00:11:57.146Z,926.31
2018-01-28T00:12:08.307Z,926.31
2018-01-28T00:12:20.947Z,926.29
2018-01-28T00:12:33.965Z,926.31
2018-01-28T00:12:46.600Z,926.31
2018-01-28T00:12:59.158Z,926.27
2018-01-28T00:13:12.275Z,926.29
2018-01-28T00:13:24.486Z,926.27
2018-01-28T00:13:37.062Z,926.31
2018-01-28T00:13:48.750Z,926.28
2018-01-28T00:14:01.851Z,926.29
2018-01-28T00:14:15.029Z,926.26
2018-01-28T00:14:28.358Z,926.32
2018-01-28T00:14:40.990Z,926.28
2018-01-28T00:14:54.045Z,926.31
2018-01-28T00:15:06.724Z,926.33
2018-01-28T00:15:18.817Z,926.3
2018-01-28T00:15:31.513Z,926.31
2018-01-28T00:15:44.204Z,926.34
2018-01-28T00:15:56.771Z,926.33
2018-01-28T00:16:09.849Z,926.27
2018-01-28T00:16:22.524Z,926.32
2018-01-28T00:16:35.713Z,926.32
2018-01-28T00:16:48.918Z,926.29
2018-01-28T00:17:01.578Z,926.31
2018-01-28T00:17:14.675Z,926.32
2018-01-28T00:17:27.729Z,926.32
2018-01-28T00:17:40.286Z,926.32
2018-01-28T00:17:52.949Z,926.35
2018-01-28T00:18:05.538Z,926.35
2018-01-28T00:18:18.527Z,926.36
2018-01-28T00:18:31.568Z,926.37
2018-01-28T00:18:43.747Z,926.32
2018-01-28T00:18:56.953Z,926.41
2018-01-28T00:19:09.534Z,926.33
2018-01-28T00:19:22.536Z,926.38
2018-01-28T00:19:35.600Z,926.37
2018-01-28T00:19:47.730Z,926.35
2018-01-28T00:20:00.887Z,926.41
2018-01-28T00:20:13.590Z,926.42
2018-01-28T00:20:26.306Z,926.38
2018-01-28T00:20:38.487Z,926.42
2018-01-28T00:20:51.058Z,926.43
2018-01-28T00:21:04.157Z,926.43
2018-01-28T00:21:17.185Z,926.37
2018-01-28T00:21:29.864Z,926.37
2018-01-28T00:21:43.000Z,926.36
2018-01-28T00:21:55.611Z,926.42
2018-01-28T00:22:08.227Z,926.39
2018-01-28T00:22:20.782Z,926.46
2018-01-28T00:22:33.839Z,926.42
2018-01-28T00:22:46.429Z,926.38
2018-01-28T00:22:58.950Z,926.41
2018-01-28T00:23:11.520Z,926.4
2018-01-28T00:23:24.108Z,926.39
2018-01-28T00:23:36.216Z,926.42
2018-01-28T00:23:49.294Z,926.42
2018-01-28T00:24:01.437Z,926.39
2018-01-28T00:24:14.572Z,926.41
2018-01-28T00:24:27.171Z,926.45
2018-01-28T00:24:38.378Z,926.44
2018-01-28T00:24:51.478Z,926.41
2018-01-28T00:25:04.542Z,926.44
2018-01-28T00:25:17.223Z,926.45
2018-01-28T00:25:30.321Z,926.4
2018-01-28T00:25:42.846Z,926.45
2018-01-28T00:25:56.001Z,926.44
2018-01-28T00:26:09.058Z,926.45
2018-01-28T00:26:22.216Z,926.47
2018-01-28T00:26:35.392Z,926.49
2018-01-28T00:26:48.038Z,926.47
2018-01-28T00:27:01.086Z,926.46
2018-01-28T00:27:13.347Z,926.44
2018-01-28T00:27:25.967Z,926.46
2018-01-28T00:27:38.647Z,926.49
2018-01-28T00:27:51.232Z,926.51
2018-01-28T00:28:03.813Z,926.45
2018-01-28T00:28:17.217Z,926.5
2018-01-28T00:28:28.862Z,926.52
2018-01-28T00:28:41.847Z,926.49
2018-01-28T00:28:54.987Z,926.53
2018-01-28T00:29:07.135Z,926.51
2018-01-28T00:29:19.805Z,926.57
2018-01-28T00:29:32.899Z,926.51
2018-01-28T00:29:45.486Z,926.54
2018-01-28T00:29:57.662Z,926.51
2018-01-28T00:30:10.831Z,926.55
2018-01-28T00:30:22.948Z,926.57
2018-01-28T00:30:35.099Z,926.55
2018-01-28T00:30:47.192Z,926.54
2018-01-28T00:30:59.772Z,926.55
2018-01-28T00:31:12.443Z,926.58
2018-01-28T00:31:25.771Z,926.57
2018-01-28T00:31:38.417Z,926.54
2018-01-28T00:31:51.066Z,926.56
2018-01-28T00:32:03.629Z,926.52
2018-01-28T00:32:15.795Z,926.54
2018-01-28T00:32:28.864Z,926.56
2018-01-28T00:32:41.021Z,926.55
2018-01-28T00:32:53.729Z,926.55
2018-01-28T00:33:06.875Z,926.58
2018-01-28T00:33:19.428Z,926.57
2018-01-28T00:33:32.018Z,926.56
2018-01-28T00:33:45.052Z,926.57
2018-01-28T00:33:58.145Z,926.57
2018-01-28T00:34:10.922Z,926.59
2018-01-28T00:34:24.018Z,926.6
2018-01-28T00:34:37.126Z,926.57
2018-01-28T00:34:49.241Z,926.53
2018-01-28T00:35:02.312Z,926.53
2018-01-28T00:35:15.354Z,926.54
2018-01-28T00:35:27.509Z,926.56
2018-01-28T00:35:40.137Z,926.53
2018-01-28T00:35:52.221Z,926.54
2018-01-28T00:36:04.359Z,926.54
2018-01-28T00:36:16.985Z,926.57
2018-01-28T00:36:30.094Z,926.52
2018-01-28T00:36:42.696Z,926.53
2018-01-28T00:36:55.290Z,926.51
2018-01-28T00:37:07.008Z,926.51
2018-01-28T00:37:20.063Z,926.52
2018-01-28T00:37:33.108Z,926.54
2018-01-28T00:37:45.694Z,926.56
2018-01-28T00:37:58.881Z,926.52
2018-01-28T00:38:12.009Z,926.52
2018-01-28T00:38:25.203Z,926.56
2018-01-28T00:38:38.221Z,926.57
2018-01-28T00:38:50.820Z,926.54
2018-01-28T00:39:03.875Z,926.54
2018-01-28T00:39:16.027Z,926.6
2018-01-28T00:39:28.587Z,926.58
2018-01-28T00:39:41.649Z,926.59
2018-01-28T00:39:54.689Z,926.54
2018-01-28T00:40:07.753Z,926.57
2018-01-28T00:40:20.858Z,926.59
2018-01-28T00:40:34.001Z,926.64
2018-01-28T00:40:47.061Z,926.6
2018-01-28T00:40:59.646Z,926.59
2018-01-28T00:41:11.755Z,926.62
2018-01-28T00:41:24.326Z,926.67
2018-01-28T00:41:36.943Z,926.69
2018-01-28T00:41:49.063Z,926.65
2018-01-28T00:42:02.197Z,926.66
2018-01-28T00:42:14.799Z,926.67
2018-01-28T00:42:27.780Z,926.66
2018-01-28T00:42:40.858Z,926.66
2018-01-28T00:42:53.018Z,926.66
2018-01-28T00:43:06.086Z,926.67
2018-01-28T00:43:18.227Z,926.67
2018-01-28T00:43:31.961Z,926.69
2018-01-28T00:43:43.113Z,926.67
2018-01-28T00:43:56.135Z,926.62
2018-01-28T00:44:08.686Z,926.67
2018-01-28T00:44:21.284Z,926.68
2018-01-28T00:44:32.995Z,926.7
2018-01-28T00:44:46.021Z,926.67
2018-01-28T00:44:59.306Z,926.7
2018-01-28T00:45:12.437Z,926.66
2018-01-28T00:45:25.058Z,926.69
2018-01-28T00:45:38.192Z,926.7
2018-01-28T00:45:50.842Z,926.69
2018-01-28T00:46:05.430Z,926.74
2018-01-28T00:46:18.029Z,926.68
2018-01-28T00:46:31.102Z,926.65
2018-01-28T00:46:44.161Z,926.66
2018-01-28T00:46:57.345Z,926.65
2018-01-28T00:47:09.586Z,926.68
2018-01-28T00:47:22.711Z,926.63
2018-01-28T00:47:35.353Z,926.64
2018-01-28T00:47:48.395Z,926.58
2018-01-28T00:48:01.474Z,926.58
2018-01-28T00:48:14.543Z,926.62
2018-01-28T00:48:27.636Z,926.63
2018-01-28T00:48:40.312Z,926.64
2018-01-28T00:48:52.924Z,926.63
2018-01-28T00:49:04.642Z,926.67
2018-01-28T00:49:17.177Z,926.62
2018-01-28T00:49:30.268Z,926.59
2018-01-28T00:49:41.879Z,926.58
2018-01-28T00:49:54.412Z,926.59
2018-01-28T00:50:06.458Z,926.59
2018-01-28T00:50:19.536Z,926.59
2018-01-28T00:50:32.627Z,926.56
2018-01-28T00:50:45.268Z,926.57
2018-01-28T00:50:57.427Z,926.6
2018-01-28T00:51:09.944Z,926.58
2018-01-28T00:51:23.057Z,926.57
2018-01-28T00:51:35.657Z,926.58
2018-01-28T00:51:46.879Z,926.59
2018-01-28T00:51:59.900Z,926.57
2018-01-28T00:52:13.001Z,926.55
2018-01-28T00:52:26.100Z,926.58
2018-01-28T00:52:38.632Z,926.57
2018-01-28T00:52:51.302Z,926.58
2018-01-28T00:53:03.893Z,926.58
2018-01-28T00:53:16.530Z,926.59
2018-01-28T00:53:29.143Z,926.64
2018-01-28T00:53:42.149Z,926.58
2018-01-28T00:53:55.298Z,926.6
2018-01-28T00:54:08.299Z,926.58
2018-01-28T00:54:21.275Z,926.6
2018-01-28T00:54:33.903Z,926.61
2018-01-28T00:54:45.544Z,926.63
2018-01-28T00:54:58.087Z,926.6
2018-01-28T00:55:11.259Z,926.62
2018-01-28T00:55:24.346Z,926.65
2018-01-28T00:55:37.380Z,926.64
2018-01-28T00:55:50.436Z,926.68
2018-01-28T00:56:03.061Z,926.68
2018-01-28T00:56:15.622Z,926.68
2018-01-28T00:56:28.232Z,926.65
2018-01-28T00:56:40.789Z,926.73
2018-01-28T00:56:53.831Z,926.67
2018-01-28T00:57:05.951Z,926.67
2018-01-28T00:57:18.538Z,926.7
2018-01-28T00:57:31.683Z,926.68
2018-01-28T00:57:43.312Z,926.63
2018-01-28T00:57:55.498Z,926.72
2018-01-28T00:58:08.110Z,926.71
2018-01-28T00:58:20.278Z,926.67
2018-01-28T00:58:34.182Z,926.71
2018-01-28T00:58:46.755Z,926.7
2018-01-28T00:58:59.388Z,926.67
2018-01-28T00:59:12.403Z,926.65
2018-01-28T00:59:25.012Z,926.68
2018-01-28T00:59:36.692Z,926.67
2018-01-28T00:59:49.768Z,926.61
2018-01-28T01:00:02.298Z,926.62
2018-01-28T01:00:14.045Z,926.64
2018-01-28T01:00:27.167Z,926.62
2018-01-28T01:00:39.833Z,926.63
2018-01-28T01:00:51.982Z,926.67
2018-01-28T01:01:04.610Z,926.64
2018-01-28T01:01:17.314Z,926.61
2018-01-28T01:01:28.995Z,926.61
2018-01-28T01:01:42.133Z,926.63
2018-01-28T01:01:54.798Z,926.64
2018-01-28T01:02:07.872Z,926.63
2018-01-28T01:02:20.854Z,926.69
2018-01-28T01:02:33.969Z,926.64
2018-01-28T01:02:46.647Z,926.64
2018-01-28T01:02:59.694Z,926.62
2018-01-28T01:03:11.892Z,926.62
2018-01-28T01:03:24.996Z,926.63
2018-01-28T01:03:38.054Z,926.62
2018-01-28T01:03:50.702Z,926.65
2018-01-28T01:04:03.326Z,926.66
2018-01-28T01:04:16.368Z,926.72
2018-01-28T01:04:28.974Z,926.63
2018-01-28T01:04:40.681Z,926.7
2018-01-28T01:04:52.820Z,926.66
2018-01-28T01:05:05.846Z,926.68
2018-01-28T01:05:18.915Z,926.72
2018-01-28T01:05:31.104Z,926.71
2018-01-28T01:05:43.778Z,926.71
2018-01-28T01:05:56.402Z,926.65
2018-01-28T01:06:09.072Z,926.65
2018-01-28T01:06:22.174Z,926.72
2018-01-28T01:06:35.254Z,926.74
2018-01-28T01:06:47.917Z,926.75
2018-01-28T01:06:59.631Z,926.71
2018-01-28T01:07:11.245Z,926.75
2018-01-28T01:07:23.947Z,926.76
2018-01-28T01:07:36.130Z,926.7
2018-01-28T01:07:49.201Z,926.7
2018-01-28T01:08:02.290Z,926.75
2018-01-28T01:08:14.838Z,926.71
2018-01-28T01:08:27.376Z,926.75
2018-01-28T01:08:39.851Z,926.75
2018-01-28T01:08:52.515Z,926.69
2018-01-28T01:09:05.127Z,926.71
2018-01-28T01:09:18.255Z,926.71
2018-01-28T01:09:30.840Z,926.67
2018-01-28T01:09:43.082Z,926.71
2018-01-28T01:09:55.766Z,926.77
2018-01-28T01:10:07.433Z,926.76
2018-01-28T01:10:20.109Z,926.77
2018-01-28T01:10:33.158Z,926.75
2018-01-28T01:10:45.812Z,926.72
2018-01-28T01:10:58.953Z,926.7
2018-01-28T01:11:12.049Z,926.76
2018-01-28T01:11:25.091Z,926.73
2018-01-28T01:11:37.767Z,926.76
2018-01-28T01:11:50.325Z,926.72
2018-01-28T01:12:02.971Z,926.7
2018-01-28T01:12:16.636Z,926.72
2018-01-28T01:12:29.727Z,926.71
2018-01-28T01:12:42.447Z,926.7
2018-01-28T01:12:55.601Z,926.68
2018-01-28T01:13:08.752Z,926.69
2018-01-28T01:13:21.326Z,926.7
2018-01-28T01:13:34.509Z,926.69
2018-01-28T01:13:47.151Z,926.66
2018-01-28T01:14:00.252Z,926.68
2018-01-28T01:14:12.905Z,926.66
2018-01-28T01:14:25.466Z,926.68
2018-01-28T01:14:38.101Z,926.71
2018-01-28T01:14:51.209Z,926.72
2018-01-28T01:15:02.874Z,926.7
2018-01-28T01:15:14.516Z,926.66
2018-01-28T01:15:26.689Z,926.69
2018-01-28T01:15:39.241Z,926.69
2018-01-28T01:15:52.330Z,926.72
2018-01-28T01:16:05.420Z,926.73
2018-01-28T01:16:18.528Z,926.68
2018-01-28T01:16:31.540Z,926.69
2018-01-28T01:16:43.707Z,926.72
2018-01-28T01:16:56.916Z,926.71
2018-01-28T01:17:09.522Z,926.69
2018-01-28T01:17:22.637Z,926.69
2018-01-28T01:17:34.794Z,926.67
2018-01-28T01:17:47.412Z,926.73
2018-01-28T01:18:00.073Z,926.69
2018-01-28T01:18:12.707Z,926.73
2018-01-28T01:18:25.277Z,926.69
2018-01-28T01:18:37.961Z,926.75
2018-01-28T01:18:51.065Z,926.67
2018-01-28T01:19:04.238Z,926.69
2018-01-28T01:19:16.389Z,926.75
2018-01-28T01:19:28.508Z,926.73
2018-01-28T01:19:41.230Z,926.71
2018-01-28T01:19:53.867Z,926.72
2018-01-28T01:20:06.461Z,926.73
2018-01-28T01:20:19.625Z,926.73
2018-01-28T01:20:32.763Z,926.71
2018-01-28T01:20:45.906Z,926.78
2018-01-28T01:20:59.027Z,926.69
2018-01-28T01:21:12.133Z,926.76
2018-01-28T01:21:24.707Z,926.71
2018-01-28T01:21:37.306Z,926.72
2018-01-28T01:21:49.906Z,926.76
2018-01-28T01:22:03.016Z,926.74
2018-01-28T01:22:15.253Z,926.72
2018-01-28T01:22:28.324Z,926.7
2018-01-28T01:22:40.425Z,926.69
2018-01-28T01:22:52.138Z,926.68
2018-01-28T01:23:04.706Z,926.69
2018-01-28T01:23:17.354Z,926.68
2018-01-28T01:23:29.025Z,926.7
2018-01-28T01:23:41.629Z,926.67
2018-01-28T01:23:54.233Z,926.71
2018-01-28T01:24:07.291Z,926.68
2018-01-28T01:24:20.316Z,926.73
2018-01-28T01:24:33.346Z,926.71
2018-01-28T01:24:46.419Z,926.73
2018-01-28T01:24:59.048Z,926.73
2018-01-28T01:25:12.177Z,926.71
2018-01-28T01:25:25.321Z,926.67
2018-01-28T01:25:37.892Z,926.71
2018-01-28T01:25:50.987Z,926.78
2018-01-28T01:26:04.054Z,926.73
2018-01-28T01:26:16.729Z,926.74
2018-01-28T01:26:29.279Z,926.75
2018-01-28T01:26:41.862Z,926.77
2018-01-28T01:26:53.999Z,926.76
2018-01-28T01:27:06.635Z,926.75
2018-01-28T01:27:19.279Z,926.79
2018-01-28T01:27:32.366Z,926.75
2018-01-28T01:27:45.458Z,926.76
2018-01-28T01:27:58.138Z,926.8
2018-01-28T01:28:11.273Z,926.86
2018-01-28T01:28:24.289Z,926.89
2018-01-28T01:28:36.974Z,926.83
2018-01-28T01:28:51.002Z,926.88
2018-01-28T01:29:04.197Z,926.86
2018-01-28T01:29:17.340Z,926.88
2018-01-28T01:29:30.392Z,926.89
2018-01-28T01:29:42.972Z,926.86
2018-01-28T01:29:56.073Z,926.89
2018-01-28T01:30:08.776Z,926.9
2018-01-28T01:30:21.433Z,926.84
2018-01-28T01:30:34.055Z,926.9
2018-01-28T01:30:47.153Z,926.88
2018-01-28T01:30:59.730Z,926.9
2018-01-28T01:31:11.888Z,926.89
2018-01-28T01:31:25.042Z,926.87
2018-01-28T01:31:38.054Z,926.88
2018-01-28T01:31:51.175Z,926.87
2018-01-28T01:32:03.709Z,926.87
2018-01-28T01:32:16.893Z,926.93
2018-01-28T01:32:29.980Z,926.95
2018-01-28T01:32:43.012Z,926.94
2018-01-28T01:32:55.846Z,926.92
2018-01-28T01:33:08.940Z,926.92
2018-01-28T01:33:21.480Z,926.95
2018-01-28T01:33:34.559Z,926.92
2018-01-28T01:33:47.258Z,926.92
2018-01-28T01:34:00.269Z,926.92
2018-01-28T01:34:13.290Z,926.93
2018-01-28T01:34:25.404Z,926.89
2018-01-28T01:34:38.037Z,926.9
2018-01-28T01:34:51.080Z,926.91
2018-01-28T01:35:03.716Z,926.86
2018-01-28T01:35:15.802Z,926.91
2018-01-28T01:35:28.486Z,926.91
2018-01-28T01:35:41.081Z,926.91
2018-01-28T01:35:54.229Z,926.91
2018-01-28T01:36:06.862Z,926.95
2018-01-28T01:36:19.443Z,926.95
2018-01-28T01:36:32.493Z,926.93
2018-01-28T01:36:45.127Z,926.92
2018-01-28T01:36:58.269Z,926.9
2018-01-28T01:37:10.900Z,926.9
2018-01-28T01:37:23.597Z,926.86
2018-01-28T01:37:36.591Z,926.89
2018-01-28T01:37:49.735Z,926.89
2018-01-28T01:38:02.884Z,926.87
2018-01-28T01:38:16.043Z,926.84
2018-01-28T01:38:29.143Z,926.9
2018-01-28T01:38:41.844Z,926.86
2018-01-28T01:38:54.642Z,926.91
2018-01-28T01:39:07.310Z,926.91
2018-01-28T01:39:20.360Z,926.88
2018-01-28T01:39:32.971Z,926.87
2018-01-28T01:39:45.359Z,926.91
2018-01-28T01:39:58.492Z,926.88
2018-01-28T01:40:11.098Z,926.89
2018-01-28T01:40:23.745Z,926.86
2018-01-28T01:40:36.351Z,926.85
2018-01-28T01:40:48.984Z,926.82
2018-01-28T01:41:02.048Z,926.83
2018-01-28T01:41:14.640Z,926.8
2018-01-28T01:41:27.348Z,926.82
2018-01-28T01:41:39.963Z,926.82
2018-01-28T01:41:53.055Z,926.82
2018-01-28T01:42:05.624Z,926.8
2018-01-28T01:42:17.744Z,926.84
2018-01-28T01:42:30.313Z,926.8
2018-01-28T01:42:42.109Z,926.85
2018-01-28T01:42:55.226Z,926.86
2018-01-28T01:43:07.936Z,926.83
2018-01-28T01:43:21.074Z,926.84
2018-01-28T01:43:34.186Z,926.8
2018-01-28T01:43:47.870Z,926.78
2018-01-28T01:44:00.546Z,926.81
2018-01-28T01:44:12.673Z,926.81
2018-01-28T01:44:25.349Z,926.79
2018-01-28T01:44:37.989Z,926.81
2018-01-28T01:44:50.071Z,926.79
2018-01-28T01:45:02.726Z,926.78
2018-01-28T01:45:15.374Z,926.82
2018-01-28T01:45:28.493Z,926.79
2018-01-28T01:45:40.706Z,926.81
2018-01-28T01:45:53.803Z,926.83
2018-01-28T01:46:06.482Z,926.8
2018-01-28T01:46:18.695Z,926.82
2018-01-28T01:46:31.793Z,926.79
2018-01-28T01:46:43.409Z,926.83
2018-01-28T01:46:55.953Z,926.81
2018-01-28T01:47:09.031Z,926.81
2018-01-28T01:47:21.728Z,926.81
2018-01-28T01:47:34.351Z,926.81
2018-01-28T01:47:46.762Z,926.78
2018-01-28T01:47:59.369Z,926.81
2018-01-28T01:48:11.547Z,926.82
2018-01-28T01:48:24.172Z,926.85
2018-01-28T01:48:37.143Z,926.85
2018-01-28T01:48:49.710Z,926.82
2018-01-28T01:49:01.827Z,926.84
2018-01-28T01:49:14.945Z,926.86
2018-01-28T01:49:27.540Z,926.88
2018-01-28T01:49:39.707Z,926.83
2018-01-28T01:49:51.916Z,926.87
2018-01-28T01:50:05.050Z,926.83
2018-01-28T01:50:18.241Z,926.85
2018-01-28T01:50:31.362Z,926.84
2018-01-28T01:50:45.824Z,926.84
2018-01-28T01:50:58.861Z,926.86
2018-01-28T01:51:11.505Z,926.8
2018-01-28T01:51:24.165Z,926.81
2018-01-28T01:51:37.315Z,926.79
2018-01-28T01:52:40.538Z,926.83
2018-01-28T01:52:52.656Z,926.83
2018-01-28T01:53:36.958Z,926.87
2018-01-28T01:55:05.063Z,926.83
2018-01-28T01:55:17.660Z,926.83
2018-01-28T01:56:01.454Z,926.83
2018-01-28T01:56:14.051Z,926.79
2018-01-28T01:56:27.113Z,926.83
2018-01-28T01:56:40.176Z,926.82
2018-01-28T01:56:52.845Z,926.83
2018-01-28T01:57:05.964Z,926.82
2018-01-28T01:57:18.606Z,926.84
2018-01-28T01:57:31.308Z,926.8
2018-01-28T01:57:44.333Z,926.82
2018-01-28T01:57:57.373Z,926.79
2018-01-28T01:58:10.360Z,926.83
2018-01-28T01:58:22.980Z,926.79
2018-01-28T01:58:35.987Z,926.78
2018-01-28T01:58:48.538Z,926.8
2018-01-28T01:59:01.204Z,926.81
2018-01-28T01:59:14.223Z,926.8
2018-01-28T01:59:27.290Z,926.82
2018-01-28T01:59:39.929Z,926.79
2018-01-28T01:59:53.053Z,926.8
2018-01-28T02:00:05.243Z,926.77
2018-01-28T02:00:17.433Z,926.8
2018-01-28T02:00:29.551Z,926.82
2018-01-28T02:00:41.733Z,926.78
2018-01-28T02:00:53.948Z,926.79
2018-01-28T02:01:06.615Z,926.76
2018-01-28T02:01:18.816Z,926.75
2018-01-28T02:01:30.438Z,926.77
2018-01-28T02:01:43.009Z,926.77
2018-01-28T02:01:55.693Z,926.76
2018-01-28T02:02:07.450Z,926.74
2018-01-28T02:02:20.544Z,926.77
2018-01-28T02:02:32.760Z,926.76
2018-01-28T02:02:44.827Z,926.78
2018-01-28T02:02:57.713Z,926.8
2018-01-28T02:03:09.821Z,926.75
2018-01-28T02:03:21.991Z,926.75
2018-01-28T02:03:35.749Z,926.74
2018-01-28T02:03:47.885Z,926.75
2018-01-28T02:04:01.078Z,926.74
2018-01-28T02:04:14.146Z,926.77
2018-01-28T02:04:26.715Z,926.77
2018-01-28T02:04:39.309Z,926.73
2018-01-28T02:04:51.908Z,926.72
2018-01-28T02:05:04.118Z,926.73
2018-01-28T02:05:16.692Z,926.73
2018-01-28T02:05:29.754Z,926.73
2018-01-28T02:05:41.945Z,926.75
2018-01-28T02:05:55.338Z,926.76
2018-01-28T02:06:09.644Z,926.73
2018-01-28T02:06:22.241Z,926.73
2018-01-28T02:06:34.859Z,926.68
2018-01-28T02:06:47.454Z,926.7
2018-01-28T02:07:00.617Z,926.72
2018-01-28T02:07:13.263Z,926.72
2018-01-28T02:07:25.913Z,926.67
2018-01-28T02:07:39.046Z,926.71
2018-01-28T02:07:51.722Z,926.72
2018-01-28T02:08:04.396Z,926.68
2018-01-28T02:08:16.978Z,926.69
2018-01-28T02:08:30.077Z,926.7
2018-01-28T02:08:42.754Z,926.68
2018-01-28T02:08:55.894Z,926.71
2018-01-28T02:09:08.500Z,926.72
2018-01-28T02:09:21.656Z,926.72
2018-01-28T02:09:34.281Z,926.71
2018-01-28T02:09:46.826Z,926.7
2018-01-28T02:09:59.924Z,926.72
2018-01-28T02:10:12.335Z,926.71
2018-01-28T02:10:24.429Z,926.7
2018-01-28T02:10:36.187Z,926.71
2018-01-28T02:10:48.874Z,926.67
2018-01-28T02:11:02.021Z,926.7
2018-01-28T02:11:14.103Z,926.68
2018-01-28T02:11:27.315Z,926.68
2018-01-28T02:11:39.934Z,926.67
2018-01-28T02:11:53.010Z,926.68
2018-01-28T02:12:06.077Z,926.64
2018-01-28T02:12:18.218Z,926.65
2018-01-28T02:12:30.864Z,926.65
2018-01-28T02:12:42.983Z,926.63
2018-01-28T02:12:56.086Z,926.64
2018-01-28T02:13:08.798Z,926.64
2018-01-28T02:13:21.412Z,926.63
2018-01-28T02:13:33.290Z,926.62
2018-01-28T02:13:45.999Z,926.62
2018-01-28T02:13:58.598Z,926.64
2018-01-28T02:14:10.653Z,926.62
2018-01-28T02:14:23.299Z,926.65
2018-01-28T02:14:35.462Z,926.62
2018-01-28T02:14:47.577Z,926.61
2018-01-28T02:15:00.701Z,926.62
2018-01-28T02:15:13.245Z,926.65
2018-01-28T02:15:25.405Z,926.6
2018-01-28T02:15:38.565Z,926.62
2018-01-28T02:15:50.797Z,926.61
2018-01-28T02:16:02.977Z,926.61
2018-01-28T02:16:15.617Z,926.62
2018-01-28T02:16:28.178Z,926.6
2018-01-28T02:16:40.360Z,926.59
2018-01-28T02:16:53.362Z,926.61
2018-01-28T02:17:06.449Z,926.6
2018-01-28T02:17:19.600Z,926.62
2018-01-28T02:17:31.834Z,926.59
2018-01-28T02:17:43.934Z,926.59
2018-01-28T02:17:57.060Z,926.63
2018-01-28T02:18:09.255Z,926.62
2018-01-28T02:18:20.994Z,926.6
2018-01-28T02:18:34.076Z,926.61
2018-01-28T02:18:47.150Z,926.62
2018-01-28T02:19:00.331Z,926.6
2018-01-28T02:19:13.399Z,926.66
2018-01-28T02:19:26.237Z,926.66
2018-01-28T02:19:37.873Z,926.61
2018-01-28T02:19:52.223Z,926.62
2018-01-28T02:20:05.229Z,926.61
2018-01-28T02:20:17.774Z,926.63
2018-01-28T02:20:30.889Z,926.6
2018-01-28T02:20:43.253Z,926.62
2018-01-28T02:20:55.433Z,926.61
2018-01-28T02:21:08.110Z,926.62
2018-01-28T02:21:20.700Z,926.61
2018-01-28T02:21:33.558Z,926.58
2018-01-28T02:21:45.629Z,926.63
2018-01-28T02:21:58.679Z,926.61
2018-01-28T02:22:10.385Z,926.55
2018-01-28T02:22:22.412Z,926.51
2018-01-28T02:22:35.074Z,926.51
2018-01-28T02:22:46.742Z,926.53
2018-01-28T02:22:58.888Z,926.53
2018-01-28T02:23:11.896Z,926.52
2018-01-28T02:23:24.018Z,926.51
2018-01-28T02:23:37.166Z,926.51
2018-01-28T02:23:49.325Z,926.49
2018-01-28T02:24:02.401Z,926.48
2018-01-28T02:24:15.566Z,926.46
2018-01-28T02:24:28.175Z,926.46
2018-01-28T02:24:41.206Z,926.45
2018-01-28T02:24:55.125Z,926.47
2018-01-28T02:25:07.734Z,926.5
2018-01-28T02:25:19.864Z,926.51
2018-01-28T02:25:32.913Z,926.41
2018-01-28T02:25:46.480Z,926.44
2018-01-28T02:25:59.572Z,926.44
2018-01-28T02:26:12.179Z,926.43
2018-01-28T02:26:24.794Z,926.46
2018-01-28T02:26:37.345Z,926.45
2018-01-28T02:26:49.912Z,926.45
2018-01-28T02:27:02.941Z,926.42
2018-01-28T02:27:14.599Z,926.43
2018-01-28T02:27:27.604Z,926.48
2018-01-28T02:27:40.713Z,926.46
2018-01-28T02:27:53.785Z,926.42
2018-01-28T02:28:06.313Z,926.46
2018-01-28T02:28:18.903Z,926.48
2018-01-28T02:28:31.098Z,926.5
2018-01-28T02:28:43.733Z,926.43
2018-01-28T02:28:56.803Z,926.47
2018-01-28T02:29:09.872Z,926.47
2018-01-28T02:29:22.974Z,926.43
2018-01-28T02:29:36.931Z,926.47
2018-01-28T02:29:49.965Z,926.43
2018-01-28T02:30:03.121Z,926.45
2018-01-28T02:30:16.002Z,926.41
2018-01-28T02:30:28.528Z,926.43
2018-01-28T02:30:41.682Z,926.44
2018-01-28T02:30:54.288Z,926.45
2018-01-28T02:31:06.977Z,926.4
2018-01-28T02:31:19.644Z,926.47
2018-01-28T02:31:32.355Z,926.41
2018-01-28T02:31:44.941Z,926.44
2018-01-28T02:31:58.174Z,926.38
2018-01-28T02:32:09.870Z,926.41
2018-01-28T02:32:22.982Z,926.37
2018-01-28T02:32:36.116Z,926.37
2018-01-28T02:32:49.162Z,926.39
2018-01-28T02:33:02.561Z,926.4
2018-01-28T02:33:15.198Z,926.38
2018-01-28T02:33:26.819Z,926.38
2018-01-28T02:33:38.857Z,926.34
2018-01-28T02:33:50.070Z,926.39
2018-01-28T02:34:03.218Z,926.36
2018-01-28T02:34:15.884Z,926.34
2018-01-28T02:34:28.487Z,926.32
2018-01-28T02:34:41.525Z,926.34
2018-01-28T02:34:54.063Z,926.33
2018-01-28T02:35:06.158Z,926.37
2018-01-28T02:35:19.262Z,926.3
2018-01-28T02:35:31.461Z,926.34
2018-01-28T02:35:44.079Z,926.33
2018-01-28T02:35:57.127Z,926.29
2018-01-28T02:36:09.311Z,926.33
2018-01-28T02:36:21.491Z,926.3
2018-01-28T02:36:34.517Z,926.3
2018-01-28T02:36:46.599Z,926.31
2018-01-28T02:36:59.262Z,926.35
2018-01-28T02:37:11.440Z,926.3
2018-01-28T02:37:24.405Z,926.33
2018-01-28T02:37:36.931Z,926.29
2018-01-28T02:37:49.537Z,926.32
2018-01-28T02:38:02.209Z,926.29
2018-01-28T02:38:14.362Z,926.31
2018-01-28T02:38:27.046Z,926.28
2018-01-28T02:38:39.634Z,926.28
2018-01-28T02:38:52.311Z,926.29
2018-01-28T02:39:05.445Z,926.27
2018-01-28T02:39:18.071Z,926.29
2018-01-28T02:39:30.641Z,926.25
2018-01-28T02:39:43.361Z,926.32
2018-01-28T02:39:55.942Z,926.28
2018-01-28T02:40:09.052Z,926.25
2018-01-28T02:40:21.619Z,926.25
2018-01-28T02:40:33.697Z,926.26
2018-01-28T02:40:46.332Z,926.27
2018-01-28T02:40:58.975Z,926.24
2018-01-28T02:41:12.077Z,926.29
2018-01-28T02:41:25.178Z,926.28
2018-01-28T02:41:38.289Z,926.28
2018-01-28T02:41:50.432Z,926.28
2018-01-28T02:42:02.128Z,926.3